createdAt,value
2024-04-25T00:00:18.540Z,2.17
2024-04-25T00:02:48.234Z,1.73
2024-04-25T00:05:18.697Z,2.20
2024-04-25T00:07:48.486Z,1.90
2024-04-25T00:10:18.348Z,2.10
2024-04-25T00:12:51.047Z,2.40
2024-04-25T00:15:20.784Z,2.33
2024-04-25T00:17:50.698Z,2.40
2024-04-25T00:20:20.659Z,2.30
2024-04-25T00:22:50.224Z,2.50
2024-04-25T00:25:19.990Z,2.58
2024-04-25T00:27:52.245Z,2.38
2024-04-25T00:30:22.208Z,2.22
2024-04-25T00:32:53.913Z,2.15
2024-04-25T00:35:23.742Z,2.33
2024-04-25T00:37:55.714Z,2.20
2024-04-25T00:40:26.290Z,2.20
2024-04-25T00:43:01.349Z,2.40
2024-04-25T00:45:31.009Z,2.60
2024-04-25T00:48:01.177Z,2.03
2024-04-25T00:50:31.476Z,2.28
2024-04-25T00:53:02.741Z,2.28
2024-04-25T00:55:35.721Z,2.38
2024-04-25T00:58:12.403Z,2.17
2024-04-25T01:00:46.309Z,2.22
2024-04-25T01:03:20.308Z,2.10
2024-04-25T01:05:51.518Z,2.13
2024-04-25T01:08:21.273Z,2.40
2024-04-25T01:10:51.697Z,2.35
2024-04-25T01:13:24.214Z,2.15
2024-04-25T01:15:56.591Z,2.00
2024-04-25T01:18:26.472Z,2.67
2024-04-25T01:20:56.726Z,1.80
2024-04-25T01:23:34.761Z,2.00
2024-04-25T01:26:10.540Z,2.17
2024-04-25T01:28:42.566Z,2.05
2024-04-25T01:31:13.667Z,2.72
2024-04-25T01:33:44.147Z,2.28
2024-04-25T01:36:14.258Z,2.17
2024-04-25T01:38:44.111Z,2.35
2024-04-25T01:41:16.919Z,2.38
2024-04-25T01:43:47.160Z,1.67
2024-04-25T01:46:17.072Z,2.55
2024-04-25T01:48:48.498Z,2.47
2024-04-25T01:51:19.612Z,2.55
2024-04-25T01:53:49.206Z,2.33
2024-04-25T01:56:21.795Z,2.15
2024-04-25T01:58:54.094Z,2.10
2024-04-25T02:01:26.743Z,1.70
2024-04-25T02:03:56.420Z,1.83
2024-04-25T02:06:28.180Z,2.75
2024-04-25T02:08:58.806Z,2.83
2024-04-25T02:11:31.652Z,2.85
2024-04-25T02:14:01.840Z,2.53
2024-04-25T02:16:31.901Z,2.67
2024-04-25T02:19:01.834Z,2.53
2024-04-25T02:21:47.782Z,2.90
2024-04-25T02:24:34.676Z,2.83
2024-04-25T02:27:07.145Z,3.00
2024-04-25T02:29:37.130Z,2.47
2024-04-25T02:32:08.028Z,3.15
2024-04-25T02:34:37.755Z,3.40
2024-04-25T02:37:07.811Z,2.88
2024-04-25T02:39:37.487Z,3.28
2024-04-25T02:42:09.857Z,2.95
2024-04-25T02:44:39.651Z,1.92
2024-04-25T02:47:08.078Z,2.80
2024-04-25T02:49:38.430Z,3.00
2024-04-25T02:52:06.417Z,3.50
2024-04-25T02:54:36.599Z,2.85
2024-04-25T02:57:06.406Z,2.88
2024-04-25T02:59:37.667Z,3.38
2024-04-25T03:02:05.235Z,2.97
2024-04-25T03:04:35.282Z,2.97
2024-04-25T03:07:02.680Z,3.53
2024-04-25T03:09:34.270Z,3.25
2024-04-25T03:12:01.786Z,3.08
2024-04-25T03:14:34.494Z,3.30
2024-04-25T03:17:01.736Z,3.13
2024-04-25T03:19:31.877Z,3.03
2024-04-25T03:22:02.094Z,3.28
2024-04-25T03:24:31.780Z,3.45
2024-04-25T03:26:58.731Z,3.17
2024-04-25T03:29:28.794Z,2.70
2024-04-25T03:31:58.955Z,2.85
2024-04-25T03:34:29.926Z,3.00
2024-04-25T03:37:00.684Z,2.20
2024-04-25T03:39:32.334Z,3.15
2024-04-25T03:42:02.078Z,3.28
2024-04-25T03:44:31.611Z,3.10
2024-04-25T03:47:03.975Z,3.17
2024-04-25T03:49:33.566Z,3.92
2024-04-25T03:52:06.288Z,3.38
2024-04-25T03:54:36.066Z,2.13
2024-04-25T03:57:05.928Z,2.75
2024-04-25T03:59:35.550Z,2.65
2024-04-25T04:02:07.947Z,3.20
2024-04-25T04:04:37.983Z,3.17
2024-04-25T04:07:07.650Z,2.80
2024-04-25T04:09:38.402Z,3.08
2024-04-25T04:12:08.491Z,2.80
2024-04-25T04:14:38.013Z,3.30
2024-04-25T04:17:10.419Z,2.90
2024-04-25T04:19:40.505Z,2.92
2024-04-25T04:22:11.640Z,3.70
2024-04-25T04:24:41.922Z,3.65
2024-04-25T04:27:11.680Z,3.20
2024-04-25T04:29:41.542Z,3.33
2024-04-25T04:32:13.797Z,3.28
2024-04-25T04:34:45.786Z,3.22
2024-04-25T04:37:15.862Z,3.10
2024-04-25T04:39:48.790Z,3.17
2024-04-25T04:42:19.587Z,2.80
2024-04-25T04:44:50.410Z,3.50
2024-04-25T04:47:23.096Z,3.45
2024-04-25T04:49:53.026Z,3.63
2024-04-25T04:52:22.790Z,3.38
2024-04-25T04:54:52.460Z,4.28
2024-04-25T04:57:22.249Z,4.20
2024-04-25T04:59:51.965Z,4.40
2024-04-25T05:02:25.825Z,3.63
2024-04-25T05:04:55.975Z,3.38
2024-04-25T05:07:26.590Z,3.45
2024-04-25T05:09:58.565Z,3.33
2024-04-25T05:12:29.485Z,3.95
2024-04-25T05:15:01.656Z,5.13
2024-04-25T05:17:34.243Z,3.55
2024-04-25T05:20:04.530Z,2.30
2024-04-25T05:22:34.506Z,3.65
2024-04-25T05:25:04.613Z,3.30
2024-04-25T05:27:35.842Z,4.00
2024-04-25T05:30:06.047Z,3.83
2024-04-25T05:32:39.914Z,3.63
2024-04-25T05:35:10.388Z,4.13
2024-04-25T05:37:40.985Z,3.58
2024-04-25T05:40:12.955Z,4.57
2024-04-25T05:42:42.832Z,4.78
2024-04-25T05:45:12.980Z,2.28
2024-04-25T05:47:46.151Z,3.85
2024-04-25T05:50:17.092Z,3.20
2024-04-25T05:52:47.228Z,3.97
2024-04-25T05:55:17.651Z,3.30
2024-04-25T05:57:47.587Z,4.07
2024-04-25T06:00:17.401Z,3.88
2024-04-25T06:02:50.204Z,3.65
2024-04-25T06:05:20.550Z,4.13
2024-04-25T06:07:50.572Z,4.00
2024-04-25T06:10:23.434Z,3.40
2024-04-25T06:12:53.714Z,3.35
2024-04-25T06:15:23.668Z,2.90
2024-04-25T06:17:57.724Z,3.83
2024-04-25T06:20:27.676Z,2.78
2024-04-25T06:22:57.630Z,2.67
2024-04-25T06:25:27.504Z,3.30
2024-04-25T06:27:57.100Z,3.65
2024-04-25T06:30:26.829Z,2.47
2024-04-25T06:32:59.284Z,3.13
2024-04-25T06:35:31.020Z,1.65
2024-04-25T06:38:02.812Z,3.13
2024-04-25T06:40:32.375Z,3.15
2024-04-25T06:43:02.346Z,3.00
2024-04-25T06:45:32.200Z,3.38
2024-04-25T06:48:05.802Z,3.20
2024-04-25T06:50:35.707Z,3.30
2024-04-25T06:53:05.771Z,3.53
2024-04-25T06:55:35.821Z,1.70
2024-04-25T06:58:06.035Z,3.20
2024-04-25T07:00:35.844Z,4.53
2024-04-25T07:03:09.639Z,2.10
2024-04-25T07:05:39.650Z,2.60
2024-04-25T07:08:10.508Z,2.90
2024-04-25T07:10:40.376Z,2.47
2024-04-25T07:13:10.575Z,1.92
2024-04-25T07:15:40.294Z,2.50
2024-04-25T07:18:13.862Z,2.05
2024-04-25T07:20:43.584Z,2.90
2024-04-25T07:23:13.682Z,2.50
2024-04-25T07:25:43.723Z,2.40
2024-04-25T07:28:14.608Z,2.00
2024-04-25T07:30:46.480Z,2.40
2024-04-25T07:33:18.746Z,2.67
2024-04-25T07:35:50.243Z,4.03
2024-04-25T07:38:20.059Z,2.30
2024-04-25T07:40:49.812Z,2.20
2024-04-25T07:43:19.366Z,2.03
2024-04-25T07:45:49.140Z,2.22
2024-04-25T07:48:21.511Z,1.98
2024-04-25T07:50:51.251Z,2.20
2024-04-25T07:53:25.741Z,1.73
2024-04-25T07:55:55.274Z,1.90
2024-04-25T07:58:25.277Z,1.83
2024-04-25T08:00:55.208Z,1.65
2024-04-25T08:03:28.313Z,1.90
2024-04-25T08:05:58.501Z,1.85
2024-04-25T08:08:28.664Z,1.80
2024-04-25T08:10:58.866Z,2.10
2024-04-25T08:13:31.030Z,1.75
2024-04-25T08:16:00.986Z,1.85
2024-04-25T08:18:33.636Z,1.63
2024-04-25T08:21:03.744Z,1.50
2024-04-25T08:23:33.721Z,2.70
2024-04-25T08:26:05.585Z,1.80
2024-04-25T08:28:35.810Z,1.75
2024-04-25T08:31:05.624Z,2.25
2024-04-25T08:33:38.223Z,2.38
2024-04-25T08:36:09.616Z,2.33
2024-04-25T08:38:41.427Z,1.73
2024-04-25T08:41:11.840Z,1.95
2024-04-25T08:43:45.178Z,2.10
2024-04-25T08:46:18.754Z,1.85
2024-04-25T08:48:52.391Z,2.20
2024-04-25T08:51:27.002Z,1.90
2024-04-25T08:53:58.364Z,1.80
2024-04-25T08:56:32.539Z,1.85
2024-04-25T08:59:02.446Z,1.90
2024-04-25T09:01:34.755Z,1.85
2024-04-25T09:04:12.607Z,1.63
2024-04-25T09:06:42.301Z,1.85
2024-04-25T09:09:12.500Z,1.80
2024-04-25T09:11:42.701Z,1.70
2024-04-25T09:14:13.608Z,1.17
2024-04-25T09:16:43.362Z,1.38
2024-04-25T09:19:15.607Z,1.38
2024-04-25T09:21:45.427Z,1.10
2024-04-25T09:24:16.040Z,1.75
2024-04-25T09:26:47.614Z,2.05
2024-04-25T09:29:18.037Z,1.33
2024-04-25T09:31:48.107Z,1.48
2024-04-25T09:34:20.664Z,1.63
2024-04-25T09:36:51.807Z,1.20
2024-04-25T09:39:21.564Z,1.42
2024-04-25T09:41:52.936Z,1.40
2024-04-25T09:44:23.144Z,1.67
2024-04-25T09:47:00.434Z,1.63
2024-04-25T09:49:39.260Z,1.77
2024-04-25T09:52:15.667Z,1.98
2024-04-25T09:54:51.147Z,2.25
2024-04-25T09:57:21.759Z,1.92
2024-04-25T09:59:58.154Z,2.58
2024-04-25T10:02:28.907Z,1.90
2024-04-25T10:05:02.410Z,1.60
2024-04-25T10:07:34.283Z,1.92
2024-04-25T10:10:07.150Z,2.15
2024-04-25T10:12:37.707Z,1.60
2024-04-25T10:15:08.624Z,1.92
2024-04-25T10:17:39.525Z,2.00
2024-04-25T10:20:21.645Z,1.40
2024-04-25T10:22:58.851Z,2.00
2024-04-25T10:25:29.535Z,1.90
2024-04-25T10:28:00.895Z,0.90
2024-04-25T10:30:31.333Z,0.45
2024-04-25T10:33:01.203Z,1.15
2024-04-25T10:35:40.911Z,1.10
2024-04-25T10:38:11.723Z,1.77
2024-04-25T10:40:45.904Z,2.60
2024-04-25T10:43:15.757Z,1.25
2024-04-25T10:45:46.414Z,1.55
2024-04-25T10:48:17.547Z,1.33
2024-04-25T10:50:50.768Z,1.42
2024-04-25T10:53:25.797Z,1.38
2024-04-25T10:55:56.597Z,1.25
2024-04-25T10:58:26.498Z,1.40
2024-04-25T11:00:56.429Z,0.80
2024-04-25T11:03:26.388Z,0.70
2024-04-25T11:05:59.732Z,0.55
2024-04-25T11:11:00.948Z,0.90
2024-04-25T11:13:30.923Z,0.80
2024-04-25T11:16:01.042Z,0.70
2024-04-25T11:18:33.613Z,0.60
2024-04-25T11:21:10.333Z,0.70
2024-04-25T11:23:41.888Z,0.65
2024-04-25T11:26:13.005Z,0.70
2024-04-25T11:28:44.685Z,0.80
2024-04-25T11:31:15.199Z,1.10
2024-04-25T11:33:45.890Z,0.80
2024-04-25T11:36:30.508Z,1.10
2024-04-25T11:39:04.755Z,0.82
2024-04-25T11:41:34.735Z,1.17
2024-04-25T11:44:07.509Z,0.95
2024-04-25T11:46:37.772Z,0.60
2024-04-25T11:49:08.127Z,0.40
2024-04-25T11:51:41.445Z,0.68
2024-04-25T11:54:12.559Z,0.73
2024-04-25T11:56:43.524Z,0.60
2024-04-25T11:59:13.575Z,0.60
2024-04-25T12:01:45.448Z,0.63
2024-04-25T12:04:15.201Z,0.77
2024-04-25T12:06:47.680Z,0.90
2024-04-25T12:09:17.520Z,0.60
2024-04-25T12:11:50.909Z,0.75
2024-04-25T12:14:22.721Z,0.47
2024-04-25T12:16:52.521Z,0.68
2024-04-25T12:19:22.115Z,0.93
2024-04-25T12:21:54.789Z,0.50
2024-04-25T12:24:25.418Z,0.80
2024-04-25T12:26:55.272Z,0.75
2024-04-25T12:29:25.189Z,1.00
2024-04-25T12:31:54.852Z,0.85
2024-04-25T12:34:25.188Z,0.50
2024-04-25T12:36:57.535Z,0.40
2024-04-25T12:39:27.329Z,0.70
2024-04-25T12:41:57.441Z,0.80
2024-04-25T12:44:31.087Z,0.60
2024-04-25T12:47:00.976Z,0.55
2024-04-25T12:49:37.600Z,0.60
2024-04-25T12:52:11.382Z,0.93
2024-04-25T12:54:43.109Z,1.73
2024-04-25T12:57:21.960Z,0.98
2024-04-25T12:59:54.442Z,1.00
2024-04-25T13:02:24.464Z,1.00
2024-04-25T13:04:54.938Z,0.85
2024-04-25T13:07:27.514Z,1.10
2024-04-25T13:09:57.526Z,0.52
2024-04-25T13:12:27.301Z,1.20
2024-04-25T13:14:57.315Z,0.90
2024-04-25T13:17:27.330Z,0.80
2024-04-25T13:19:57.207Z,0.90
2024-04-25T13:22:29.600Z,0.80
2024-04-25T13:24:59.801Z,0.65
2024-04-25T13:27:30.097Z,0.63
2024-04-25T13:30:01.989Z,0.50
2024-04-25T13:32:32.198Z,0.60
2024-04-25T13:35:02.253Z,0.90
2024-04-25T13:37:34.569Z,0.70
2024-04-25T13:40:04.215Z,1.00
2024-04-25T13:42:35.585Z,0.93
2024-04-25T13:45:05.625Z,1.00
2024-04-25T13:47:36.189Z,0.70
2024-04-25T13:50:08.409Z,0.90
2024-04-25T13:52:41.639Z,0.93
2024-04-25T13:55:11.867Z,0.90
2024-04-25T13:57:42.526Z,0.95
2024-04-25T14:00:14.237Z,0.65
2024-04-25T14:02:44.454Z,0.93
2024-04-25T14:05:16.566Z,1.00
2024-04-25T14:07:52.147Z,0.90
2024-04-25T14:10:23.009Z,0.88
2024-04-25T14:12:53.548Z,1.40
2024-04-25T14:15:23.653Z,0.93
2024-04-25T14:17:53.779Z,1.00
2024-04-25T14:20:24.956Z,0.88
2024-04-25T14:22:59.903Z,1.02
2024-04-25T14:25:46.134Z,1.10
2024-04-25T14:28:31.920Z,1.30
2024-04-25T14:31:02.109Z,1.30
2024-04-25T14:33:32.025Z,0.70
2024-04-25T14:36:02.547Z,1.02
2024-04-25T14:38:35.480Z,0.70
2024-04-25T14:41:09.587Z,0.75
2024-04-25T14:43:39.924Z,0.70
2024-04-25T14:46:11.827Z,0.77
2024-04-25T14:48:44.125Z,0.93
2024-04-25T14:51:14.092Z,1.10
2024-04-25T14:53:49.400Z,1.05
2024-04-25T14:56:19.603Z,0.90
2024-04-25T14:58:49.559Z,1.63
2024-04-25T15:01:20.595Z,1.23
2024-04-25T15:03:51.258Z,1.02
2024-04-25T15:06:21.373Z,1.17
2024-04-25T15:08:54.242Z,0.90
2024-04-25T15:11:24.421Z,1.53
2024-04-25T15:13:55.000Z,1.20
2024-04-25T15:16:24.999Z,1.10
2024-04-25T15:18:55.516Z,1.67
2024-04-25T15:21:30.069Z,1.52
2024-04-25T15:24:05.437Z,0.90
2024-04-25T15:26:35.606Z,1.55
2024-04-25T15:29:08.425Z,1.40
2024-04-25T15:31:39.503Z,1.15
2024-04-25T15:34:10.070Z,1.20
2024-04-25T15:36:41.324Z,1.25
2024-04-25T15:39:14.237Z,1.75
2024-04-25T15:41:44.621Z,1.30
2024-04-25T15:44:15.063Z,1.58
2024-04-25T15:46:45.014Z,1.40
2024-04-25T15:49:16.650Z,1.48
2024-04-25T15:51:46.794Z,1.25
2024-04-25T15:54:19.396Z,1.50
2024-04-25T15:56:51.703Z,1.10
2024-04-25T15:59:22.323Z,0.90
2024-04-25T16:01:52.314Z,1.13
2024-04-25T16:04:22.735Z,0.80
2024-04-25T16:06:52.786Z,0.93
2024-04-25T16:09:28.592Z,1.50
2024-04-25T16:11:58.551Z,1.20
2024-04-25T16:14:29.389Z,1.10
2024-04-25T16:16:56.723Z,1.17
2024-04-25T16:19:30.270Z,1.15
2024-04-25T16:22:02.052Z,1.10
2024-04-25T16:24:35.047Z,1.00
2024-04-25T16:27:07.252Z,1.20
2024-04-25T16:29:37.985Z,1.10
2024-04-25T16:32:10.063Z,1.25
2024-04-25T16:34:41.331Z,1.50
2024-04-25T16:37:11.337Z,1.02
2024-04-25T16:39:46.541Z,1.30
2024-04-25T16:42:16.835Z,1.35
2024-04-25T16:44:47.078Z,1.42
2024-04-25T16:47:18.093Z,1.88
2024-04-25T16:49:48.336Z,1.45
2024-04-25T16:52:18.664Z,1.20
2024-04-25T16:54:54.180Z,1.30
2024-04-25T16:57:24.406Z,1.40
2024-04-25T16:59:54.995Z,1.58
2024-04-25T17:02:24.913Z,1.40
2024-04-25T17:04:55.158Z,1.35
2024-04-25T17:07:25.965Z,1.33
2024-04-25T17:09:58.876Z,1.10
2024-04-25T17:12:28.658Z,1.30
2024-04-25T17:14:58.861Z,1.35
2024-04-25T17:17:30.984Z,1.25
2024-04-25T17:20:01.334Z,1.30
2024-04-25T17:22:31.436Z,1.95
2024-04-25T17:25:04.478Z,1.17
2024-04-25T17:27:35.526Z,1.10
2024-04-25T17:30:09.658Z,1.80
2024-04-25T17:32:40.013Z,2.78
2024-04-25T17:35:10.603Z,1.38
2024-04-25T17:37:41.056Z,1.40
2024-04-25T17:40:15.203Z,1.60
2024-04-25T17:42:45.697Z,1.48
2024-04-25T17:45:16.457Z,2.30
2024-04-25T17:47:46.994Z,1.50
2024-04-25T17:50:17.033Z,1.50
2024-04-25T17:52:47.538Z,1.55
2024-04-25T17:55:20.118Z,1.75
2024-04-25T17:57:50.412Z,1.83
2024-04-25T18:00:20.693Z,2.38
2024-04-25T18:02:52.095Z,1.63
2024-04-25T18:05:22.301Z,1.63
2024-04-25T18:07:52.307Z,1.77
2024-04-25T18:10:24.638Z,2.47
2024-04-25T18:12:55.184Z,2.28
2024-04-25T18:15:25.229Z,1.80
2024-04-25T18:17:55.420Z,2.20
2024-04-25T18:20:26.589Z,1.65
2024-04-25T18:22:56.670Z,2.10
2024-04-25T18:25:29.602Z,1.73
2024-04-25T18:27:59.603Z,1.65
2024-04-25T18:30:29.532Z,1.38
2024-04-25T18:32:59.964Z,1.70
2024-04-25T18:35:30.020Z,1.42
2024-04-25T18:38:03.044Z,2.00
2024-04-25T18:40:36.207Z,1.63
2024-04-25T18:43:07.415Z,1.67
2024-04-25T18:45:37.434Z,1.65
2024-04-25T18:48:07.933Z,1.50
2024-04-25T18:50:38.105Z,1.70
2024-04-25T18:53:09.580Z,1.60
2024-04-25T18:55:42.632Z,1.80
2024-04-25T18:58:14.883Z,1.60
2024-04-25T19:00:45.103Z,1.35
2024-04-25T19:03:15.143Z,1.75
2024-04-25T19:05:45.455Z,1.70
2024-04-25T19:08:15.362Z,1.70
2024-04-25T19:10:50.059Z,1.60
2024-04-25T19:13:20.076Z,1.70
2024-04-25T19:15:50.205Z,1.85
2024-04-25T19:18:24.779Z,2.20
2024-04-25T19:20:55.097Z,2.05
2024-04-25T19:23:25.559Z,2.03
2024-04-25T19:25:58.437Z,1.88
2024-04-25T19:28:28.778Z,4.30
2024-04-25T19:31:02.781Z,4.18
2024-04-25T19:33:33.377Z,4.10
2024-04-25T19:36:07.393Z,4.00
2024-04-25T19:38:37.580Z,3.47
2024-04-25T19:41:11.360Z,2.65
2024-04-25T19:43:41.458Z,2.28
2024-04-25T19:46:14.930Z,2.30
2024-04-25T19:51:16.451Z,2.63
2024-04-25T19:53:46.478Z,2.40
2024-04-25T19:56:19.276Z,2.28
2024-04-25T19:58:50.290Z,3.17
2024-04-25T20:01:20.517Z,2.85
2024-04-25T20:03:50.545Z,3.25
2024-04-25T20:06:21.473Z,2.38
2024-04-25T20:08:48.954Z,3.45
2024-04-25T20:11:22.024Z,2.47
2024-04-25T20:13:52.735Z,2.63
2024-04-25T20:16:23.177Z,2.40
2024-04-25T20:19:09.812Z,3.20
2024-04-25T20:21:43.218Z,3.35
2024-04-25T20:26:47.140Z,2.40
2024-04-25T20:29:17.454Z,1.85
2024-04-25T20:31:47.577Z,2.55
2024-04-25T20:34:19.783Z,2.22
2024-04-25T20:36:50.067Z,2.22
2024-04-25T20:39:21.379Z,2.30
2024-04-25T20:41:55.238Z,2.20
2024-04-25T20:44:26.542Z,2.40
2024-04-25T20:46:58.870Z,2.22
2024-04-25T20:49:29.764Z,2.55
2024-04-25T20:52:00.183Z,2.38
2024-04-25T20:54:30.488Z,2.78
2024-04-25T20:57:03.171Z,2.78
2024-04-25T20:59:33.640Z,2.60
2024-04-25T21:02:08.084Z,2.50
2024-04-25T21:04:38.655Z,2.47
2024-04-25T21:07:08.968Z,2.70
2024-04-25T21:09:39.051Z,2.58
2024-04-25T21:12:12.088Z,2.42
2024-04-25T21:14:42.110Z,3.00
2024-04-25T21:17:12.905Z,3.30
2024-04-25T21:19:43.848Z,3.13
2024-04-25T21:22:14.908Z,2.97
2024-04-25T21:24:45.200Z,2.70
2024-04-25T21:27:18.827Z,3.08
2024-04-25T21:29:48.931Z,3.08
2024-04-25T21:32:22.650Z,3.22
2024-04-25T21:34:59.125Z,3.05
2024-04-25T21:37:29.426Z,3.03
2024-04-25T21:40:00.429Z,3.17
2024-04-25T21:42:33.378Z,2.80
2024-04-25T21:45:04.261Z,3.20
2024-04-25T21:47:34.767Z,2.85
2024-04-25T21:50:07.291Z,3.20
2024-04-25T21:52:37.496Z,3.40
2024-04-25T21:55:08.283Z,3.55
2024-04-25T21:57:41.930Z,3.55
2024-04-25T22:00:12.404Z,3.80
2024-04-25T22:02:43.115Z,4.22
2024-04-25T22:05:13.278Z,4.53
2024-04-25T22:07:43.602Z,4.18
2024-04-25T22:10:13.661Z,4.20
2024-04-25T22:12:46.332Z,3.92
2024-04-25T22:15:16.656Z,3.33
2024-04-25T22:17:47.523Z,4.10
2024-04-25T22:20:18.326Z,3.85
2024-04-25T22:22:48.736Z,3.38
2024-04-25T22:25:19.136Z,3.55
2024-04-25T22:27:51.657Z,3.58
2024-04-25T22:30:22.753Z,3.57
2024-04-25T22:32:53.738Z,3.72
2024-04-25T22:35:26.305Z,4.13
2024-04-25T22:37:56.946Z,2.83
2024-04-25T22:40:27.120Z,3.58
2024-04-25T22:42:59.569Z,3.35
2024-04-25T22:45:32.526Z,4.10
2024-04-25T22:48:05.745Z,3.90
2024-04-25T22:50:36.040Z,3.33
2024-04-25T22:53:05.748Z,3.92
2024-04-25T22:55:35.537Z,3.47
2024-04-25T22:58:08.260Z,4.32
2024-04-25T23:00:39.686Z,4.10
2024-04-25T23:03:10.575Z,3.97
2024-04-25T23:05:41.834Z,4.00
2024-04-25T23:08:12.527Z,3.75
2024-04-25T23:10:44.661Z,4.05
2024-04-25T23:13:17.349Z,4.05
2024-04-25T23:15:47.565Z,4.05
2024-04-25T23:18:17.960Z,3.95
2024-04-25T23:20:45.129Z,3.80
2024-04-25T23:23:14.813Z,3.08
2024-04-25T23:28:35.315Z,3.72
2024-04-25T23:31:05.981Z,3.50
2024-04-25T23:33:36.189Z,3.65
2024-04-25T23:36:06.741Z,3.42
2024-04-25T23:38:37.496Z,3.70
2024-04-25T23:41:08.489Z,3.17
2024-04-25T23:43:41.898Z,3.63
2024-04-25T23:48:44.314Z,3.40
2024-04-25T23:51:14.636Z,3.50
2024-04-25T23:53:44.757Z,3.30
2024-04-25T23:56:14.939Z,3.30
2024-04-25T23:58:47.762Z,4.25
